« SFJの5号機到着したようで… | トップページ | 飛行機座席の「欠番」アレコレ »

2011年2月 6日 (日)

居ましたSFJ5号機

今朝の夫婦の会話

「ちょっと仕事があるから(これはマジ)、早く終わるようなら空港行ってくる」
「新しい飛行機?って、白黒なのは一緒でしょ?」
「まぁ… でも新品だから多分まだぴかぴかできれいで…」
「嵐が映ってるとかなら撮りに行ってもいいけどなぁ」
「…それはスターフライヤーのコンセプトと違いすぎ

というようなことがあって出勤。仕事は確認程度で済んだので、昼前に北九州空港に到着できました。

Img_1843

居ました。国際線用PBBの南側のオープンスポット。
見るのは容易ですが、ここからきれいに撮ろうと思えばフェンスをクリアする脚立などが必要。

外部電源繋いで、ドアを開けて作業中。
見ている間には動き出すことはありませんでした。

Img_1882
Img_1884

ちょっと移動して、遠くからですが全体像を撮影。
JA05MCのレジ番を確認。
"City of Kitakyushu"の文字も忘れずにw入れてあります。

Img_1859

ターミナルビルの展望デッキから。
PBBが邪魔で尻尾だけ。

Img_1866 Img_1860

ちょうど出発していった1号機(JA01MC;左)と、5号機(右)を比べると、新造機はやっぱり真っ白でぴかぴかですね。

Img_1888

1号機出発の後、到着した2号機(JA02MC)。

モヤがかかっており、撮影向きの条件で無かったのが残念。

撮影時のMETAR
RJFR 060200Z 02003KT 5000 BR NSC 05/02 Q1018 RMK A3006=

上空に雲はないけど(Nil Significant Cloud)、モヤ(BRume)があって、視程は5000mしかありません

« SFJの5号機到着したようで… | トップページ | 飛行機座席の「欠番」アレコレ »

航空・鉄道」カテゴリの記事

コメント

おはようございます。
見に行かれたんですね。まだ居ましたか。
私はその後空港に行ってなくて、最近ACARS受信もさぼってるものですからその後の5号機の動きを把握していませんでした。

binmei様見に来ていただいてありがとうございます。予告通り行って参りました。

写真の出来は散々でしたが、ちゃんと5号機が届いたのが分かって安心しました。

今日は視程がずいぶん改善していましたね

コメントを書く

(ウェブ上には掲載しません)

トラックバック


この記事へのトラックバック一覧です: 居ましたSFJ5号機:

« SFJの5号機到着したようで… | トップページ | 飛行機座席の「欠番」アレコレ »

無料ブログはココログ